sensor_id;sensor_type;location;lat;lon;timestamp;P1;durP1;ratioP1;P2;durP2;ratioP2
56429;SDS011;42332;52.136;20.666;2023-03-14T00:02:19;10.82;;;4.68;;
56429;SDS011;42332;52.136;20.666;2023-03-14T00:04:44;14.95;;;4.60;;
56429;SDS011;42332;52.136;20.666;2023-03-14T00:07:10;16.73;;;4.75;;
56429;SDS011;42332;52.136;20.666;2023-03-14T00:09:36;11.98;;;5.05;;
56429;SDS011;42332;52.136;20.666;2023-03-14T00:12:01;12.45;;;3.88;;
56429;SDS011;42332;52.136;20.666;2023-03-14T00:14:28;11.35;;;4.85;;
56429;SDS011;42332;52.136;20.666;2023-03-14T00:16:53;11.25;;;4.60;;
56429;SDS011;42332;52.136;20.666;2023-03-14T00:19:18;10.05;;;3.80;;
56429;SDS011;42332;52.136;20.666;2023-03-14T00:21:44;13.38;;;4.93;;
56429;SDS011;42332;52.136;20.666;2023-03-14T00:24:09;14.82;;;4.55;;
56429;SDS011;42332;52.136;20.666;2023-03-14T00:26:34;12.90;;;4.47;;
56429;SDS011;42332;52.136;20.666;2023-03-14T00:29:00;12.65;;;4.47;;
56429;SDS011;42332;52.136;20.666;2023-03-14T00:31:25;10.00;;;4.55;;
56429;SDS011;42332;52.136;20.666;2023-03-14T00:33:51;14.77;;;5.50;;
56429;SDS011;42332;52.136;20.666;2023-03-14T00:36:17;11.63;;;4.75;;
56429;SDS011;42332;52.136;20.666;2023-03-14T00:38:45;11.45;;;4.80;;
56429;SDS011;42332;52.136;20.666;2023-03-14T00:41:13;13.93;;;4.60;;
56429;SDS011;42332;52.136;20.666;2023-03-14T00:43:40;15.48;;;4.60;;
56429;SDS011;42332;52.136;20.666;2023-03-14T00:46:05;11.18;;;4.63;;
56429;SDS011;42332;52.136;20.666;2023-03-14T00:48:31;16.83;;;4.45;;
56429;SDS011;42332;52.136;20.666;2023-03-14T00:50:56;10.40;;;4.03;;
56429;SDS011;42332;52.136;20.666;2023-03-14T00:53:21;13.07;;;4.30;;
56429;SDS011;42332;52.136;20.666;2023-03-14T00:55:47;11.48;;;4.13;;
56429;SDS011;42332;52.136;20.666;2023-03-14T00:58:14;12.93;;;4.90;;
56429;SDS011;42332;52.136;20.666;2023-03-14T01:00:40;12.65;;;4.63;;
56429;SDS011;42332;52.136;20.666;2023-03-14T01:03:06;14.95;;;5.00;;
56429;SDS011;42332;52.136;20.666;2023-03-14T01:05:31;15.35;;;5.68;;
56429;SDS011;42332;52.136;20.666;2023-03-14T01:07:57;15.63;;;5.20;;
56429;SDS011;42332;52.136;20.666;2023-03-14T01:10:22;12.98;;;4.65;;
56429;SDS011;42332;52.136;20.666;2023-03-14T01:12:48;15.68;;;4.38;;
56429;SDS011;42332;52.136;20.666;2023-03-14T01:15:13;11.70;;;4.22;;
56429;SDS011;42332;52.136;20.666;2023-03-14T01:17:39;8.73;;;3.65;;
56429;SDS011;42332;52.136;20.666;2023-03-14T01:20:04;13.10;;;4.65;;
56429;SDS011;42332;52.136;20.666;2023-03-14T01:22:31;9.88;;;4.22;;
56429;SDS011;42332;52.136;20.666;2023-03-14T01:24:56;12.65;;;4.72;;
56429;SDS011;42332;52.136;20.666;2023-03-14T01:27:21;17.98;;;4.53;;
56429;SDS011;42332;52.136;20.666;2023-03-14T01:29:47;10.88;;;4.90;;
56429;SDS011;42332;52.136;20.666;2023-03-14T01:32:13;16.20;;;5.15;;
56429;SDS011;42332;52.136;20.666;2023-03-14T01:34:38;16.90;;;5.32;;
56429;SDS011;42332;52.136;20.666;2023-03-14T01:37:03;14.50;;;3.90;;
56429;SDS011;42332;52.136;20.666;2023-03-14T01:39:29;14.60;;;5.07;;
56429;SDS011;42332;52.136;20.666;2023-03-14T01:41:54;12.73;;;3.90;;
56429;SDS011;42332;52.136;20.666;2023-03-14T01:44:19;9.75;;;3.85;;
56429;SDS011;42332;52.136;20.666;2023-03-14T01:46:45;14.75;;;3.75;;
56429;SDS011;42332;52.136;20.666;2023-03-14T01:49:27;15.65;;;4.35;;
56429;SDS011;42332;52.136;20.666;2023-03-14T01:57:14;13.25;;;4.78;;
56429;SDS011;42332;52.136;20.666;2023-03-14T01:59:43;13.80;;;4.75;;
56429;SDS011;42332;52.136;20.666;2023-03-14T02:02:12;14.10;;;4.10;;
56429;SDS011;42332;52.136;20.666;2023-03-14T02:04:38;12.98;;;4.72;;
56429;SDS011;42332;52.136;20.666;2023-03-14T02:07:15;14.50;;;4.50;;
56429;SDS011;42332;52.136;20.666;2023-03-14T02:09:43;9.43;;;3.13;;
56429;SDS011;42332;52.136;20.666;2023-03-14T02:12:09;16.15;;;4.85;;
56429;SDS011;42332;52.136;20.666;2023-03-14T02:14:36;8.93;;;3.55;;
56429;SDS011;42332;52.136;20.666;2023-03-14T02:17:02;13.18;;;4.07;;
56429;SDS011;42332;52.136;20.666;2023-03-14T02:19:39;16.08;;;4.53;;
56429;SDS011;42332;52.136;20.666;2023-03-14T02:22:23;12.75;;;4.38;;
56429;SDS011;42332;52.136;20.666;2023-03-14T02:27:41;11.68;;;4.78;;
56429;SDS011;42332;52.136;20.666;2023-03-14T02:30:17;9.13;;;4.07;;
56429;SDS011;42332;52.136;20.666;2023-03-14T02:32:45;14.07;;;5.28;;
56429;SDS011;42332;52.136;20.666;2023-03-14T02:35:14;12.68;;;4.57;;
56429;SDS011;42332;52.136;20.666;2023-03-14T02:37:47;13.20;;;4.93;;
56429;SDS011;42332;52.136;20.666;2023-03-14T02:40:13;9.88;;;3.75;;
56429;SDS011;42332;52.136;20.666;2023-03-14T02:42:38;11.98;;;3.88;;
56429;SDS011;42332;52.136;20.666;2023-03-14T02:47:32;11.15;;;4.22;;
56429;SDS011;42332;52.136;20.666;2023-03-14T02:50:05;9.90;;;3.88;;
56429;SDS011;42332;52.136;20.666;2023-03-14T02:52:32;12.55;;;4.53;;
56429;SDS011;42332;52.136;20.666;2023-03-14T02:54:58;10.45;;;4.25;;
56429;SDS011;42332;52.136;20.666;2023-03-14T02:57:23;16.10;;;4.03;;
56429;SDS011;42332;52.136;20.666;2023-03-14T02:59:48;11.15;;;3.72;;
56429;SDS011;42332;52.136;20.666;2023-03-14T03:02:14;10.32;;;3.65;;
56429;SDS011;42332;52.136;20.666;2023-03-14T03:04:39;10.65;;;3.78;;
56429;SDS011;42332;52.136;20.666;2023-03-14T03:07:04;16.75;;;4.07;;
56429;SDS011;42332;52.136;20.666;2023-03-14T03:09:30;11.95;;;3.72;;
56429;SDS011;42332;52.136;20.666;2023-03-14T03:11:55;11.38;;;4.22;;
56429;SDS011;42332;52.136;20.666;2023-03-14T03:14:20;9.40;;;3.58;;
56429;SDS011;42332;52.136;20.666;2023-03-14T03:16:46;15.45;;;3.85;;
56429;SDS011;42332;52.136;20.666;2023-03-14T03:19:11;11.13;;;4.18;;
56429;SDS011;42332;52.136;20.666;2023-03-14T03:21:38;10.30;;;4.20;;
56429;SDS011;42332;52.136;20.666;2023-03-14T03:24:03;12.63;;;3.72;;
56429;SDS011;42332;52.136;20.666;2023-03-14T03:26:29;9.60;;;4.07;;
56429;SDS011;42332;52.136;20.666;2023-03-14T03:28:54;18.75;;;4.20;;
56429;SDS011;42332;52.136;20.666;2023-03-14T03:31:20;11.30;;;3.88;;
56429;SDS011;42332;52.136;20.666;2023-03-14T03:33:45;11.30;;;4.15;;
56429;SDS011;42332;52.136;20.666;2023-03-14T03:36:10;10.85;;;3.60;;
56429;SDS011;42332;52.136;20.666;2023-03-14T03:38:36;11.25;;;4.60;;
56429;SDS011;42332;52.136;20.666;2023-03-14T03:41:05;10.73;;;3.55;;
56429;SDS011;42332;52.136;20.666;2023-03-14T03:43:31;9.73;;;2.90;;
56429;SDS011;42332;52.136;20.666;2023-03-14T03:45:57;9.75;;;3.83;;
56429;SDS011;42332;52.136;20.666;2023-03-14T03:48:22;9.35;;;3.30;;
56429;SDS011;42332;52.136;20.666;2023-03-14T03:50:47;11.13;;;3.92;;
56429;SDS011;42332;52.136;20.666;2023-03-14T03:53:13;10.13;;;3.55;;
56429;SDS011;42332;52.136;20.666;2023-03-14T03:55:40;11.40;;;3.80;;
56429;SDS011;42332;52.136;20.666;2023-03-14T03:58:07;10.38;;;3.42;;
56429;SDS011;42332;52.136;20.666;2023-03-14T04:00:32;11.20;;;3.55;;
56429;SDS011;42332;52.136;20.666;2023-03-14T04:02:58;10.75;;;3.63;;
56429;SDS011;42332;52.136;20.666;2023-03-14T04:05:24;12.10;;;3.40;;
56429;SDS011;42332;52.136;20.666;2023-03-14T04:07:49;8.23;;;3.15;;
56429;SDS011;42332;52.136;20.666;2023-03-14T04:10:15;7.90;;;3.35;;
56429;SDS011;42332;52.136;20.666;2023-03-14T04:12:40;8.25;;;3.05;;
56429;SDS011;42332;52.136;20.666;2023-03-14T04:15:05;9.13;;;3.10;;
56429;SDS011;42332;52.136;20.666;2023-03-14T04:17:31;8.52;;;3.33;;
56429;SDS011;42332;52.136;20.666;2023-03-14T04:19:57;7.25;;;2.60;;
56429;SDS011;42332;52.136;20.666;2023-03-14T04:22:22;9.02;;;3.78;;
56429;SDS011;42332;52.136;20.666;2023-03-14T04:24:47;17.30;;;3.88;;
56429;SDS011;42332;52.136;20.666;2023-03-14T04:27:13;8.15;;;3.35;;
56429;SDS011;42332;52.136;20.666;2023-03-14T04:29:39;8.88;;;3.42;;
56429;SDS011;42332;52.136;20.666;2023-03-14T04:32:05;11.60;;;3.30;;
56429;SDS011;42332;52.136;20.666;2023-03-14T04:34:30;8.50;;;2.65;;
56429;SDS011;42332;52.136;20.666;2023-03-14T04:36:55;8.18;;;2.90;;
56429;SDS011;42332;52.136;20.666;2023-03-14T04:39:21;9.73;;;3.20;;
56429;SDS011;42332;52.136;20.666;2023-03-14T04:41:46;9.55;;;3.15;;
56429;SDS011;42332;52.136;20.666;2023-03-14T04:44:11;6.40;;;2.85;;
56429;SDS011;42332;52.136;20.666;2023-03-14T04:46:37;7.95;;;3.05;;
56429;SDS011;42332;52.136;20.666;2023-03-14T04:49:02;7.82;;;2.70;;
56429;SDS011;42332;52.136;20.666;2023-03-14T04:51:27;8.63;;;2.80;;
56429;SDS011;42332;52.136;20.666;2023-03-14T04:53:53;8.38;;;3.15;;
56429;SDS011;42332;52.136;20.666;2023-03-14T04:56:19;9.15;;;2.63;;
56429;SDS011;42332;52.136;20.666;2023-03-14T04:58:44;11.23;;;2.50;;
56429;SDS011;42332;52.136;20.666;2023-03-14T05:01:10;11.65;;;3.53;;
56429;SDS011;42332;52.136;20.666;2023-03-14T05:03:35;7.88;;;3.00;;
56429;SDS011;42332;52.136;20.666;2023-03-14T05:06:03;11.25;;;2.83;;
56429;SDS011;42332;52.136;20.666;2023-03-14T05:08:28;9.40;;;3.15;;
56429;SDS011;42332;52.136;20.666;2023-03-14T05:10:54;7.40;;;2.90;;
56429;SDS011;42332;52.136;20.666;2023-03-14T05:13:20;10.45;;;2.92;;
56429;SDS011;42332;52.136;20.666;2023-03-14T05:15:46;8.25;;;3.03;;
56429;SDS011;42332;52.136;20.666;2023-03-14T05:18:11;7.50;;;3.17;;
56429;SDS011;42332;52.136;20.666;2023-03-14T05:20:37;8.77;;;2.42;;
56429;SDS011;42332;52.136;20.666;2023-03-14T05:23:02;9.18;;;2.92;;
56429;SDS011;42332;52.136;20.666;2023-03-14T05:25:27;8.02;;;2.85;;
56429;SDS011;42332;52.136;20.666;2023-03-14T05:27:53;9.38;;;3.22;;
56429;SDS011;42332;52.136;20.666;2023-03-14T05:30:19;6.82;;;3.28;;
56429;SDS011;42332;52.136;20.666;2023-03-14T05:32:45;8.40;;;2.85;;
56429;SDS011;42332;52.136;20.666;2023-03-14T05:35:10;12.35;;;2.88;;
56429;SDS011;42332;52.136;20.666;2023-03-14T05:37:35;9.18;;;2.90;;
56429;SDS011;42332;52.136;20.666;2023-03-14T05:40:01;11.00;;;3.10;;
56429;SDS011;42332;52.136;20.666;2023-03-14T05:42:26;8.77;;;3.17;;
56429;SDS011;42332;52.136;20.666;2023-03-14T05:44:51;11.07;;;3.10;;
56429;SDS011;42332;52.136;20.666;2023-03-14T05:47:17;7.25;;;2.25;;
56429;SDS011;42332;52.136;20.666;2023-03-14T05:49:42;7.32;;;2.50;;
56429;SDS011;42332;52.136;20.666;2023-03-14T05:52:07;9.18;;;2.88;;
56429;SDS011;42332;52.136;20.666;2023-03-14T05:54:33;9.15;;;3.20;;
56429;SDS011;42332;52.136;20.666;2023-03-14T05:56:58;9.38;;;3.60;;
56429;SDS011;42332;52.136;20.666;2023-03-14T05:59:23;7.97;;;3.05;;
56429;SDS011;42332;52.136;20.666;2023-03-14T06:01:49;10.55;;;2.97;;
56429;SDS011;42332;52.136;20.666;2023-03-14T06:04:14;6.63;;;2.50;;
56429;SDS011;42332;52.136;20.666;2023-03-14T06:06:39;8.00;;;3.03;;
56429;SDS011;42332;52.136;20.666;2023-03-14T06:09:05;12.10;;;3.40;;
56429;SDS011;42332;52.136;20.666;2023-03-14T06:11:30;9.35;;;2.97;;
56429;SDS011;42332;52.136;20.666;2023-03-14T06:13:55;9.38;;;2.90;;
56429;SDS011;42332;52.136;20.666;2023-03-14T06:16:21;8.57;;;2.70;;
56429;SDS011;42332;52.136;20.666;2023-03-14T06:18:46;13.23;;;3.40;;
56429;SDS011;42332;52.136;20.666;2023-03-14T06:21:13;9.82;;;3.10;;
56429;SDS011;42332;52.136;20.666;2023-03-14T06:23:39;9.43;;;3.55;;
56429;SDS011;42332;52.136;20.666;2023-03-14T06:26:04;10.15;;;3.97;;
56429;SDS011;42332;52.136;20.666;2023-03-14T06:28:30;9.07;;;3.80;;
56429;SDS011;42332;52.136;20.666;2023-03-14T06:30:56;9.07;;;3.20;;
56429;SDS011;42332;52.136;20.666;2023-03-14T06:33:21;14.23;;;3.95;;
56429;SDS011;42332;52.136;20.666;2023-03-14T06:35:46;9.52;;;3.33;;
56429;SDS011;42332;52.136;20.666;2023-03-14T06:38:12;8.45;;;3.15;;
56429;SDS011;42332;52.136;20.666;2023-03-14T06:40:37;9.25;;;2.75;;
56429;SDS011;42332;52.136;20.666;2023-03-14T06:43:02;7.38;;;2.88;;
56429;SDS011;42332;52.136;20.666;2023-03-14T06:45:27;7.05;;;2.63;;
56429;SDS011;42332;52.136;20.666;2023-03-14T06:47:53;6.68;;;3.08;;
56429;SDS011;42332;52.136;20.666;2023-03-14T06:50:18;7.55;;;2.75;;
56429;SDS011;42332;52.136;20.666;2023-03-14T06:52:44;11.35;;;3.38;;
56429;SDS011;42332;52.136;20.666;2023-03-14T06:55:13;8.00;;;2.92;;
56429;SDS011;42332;52.136;20.666;2023-03-14T06:57:40;14.32;;;3.85;;
56429;SDS011;42332;52.136;20.666;2023-03-14T07:00:05;9.35;;;3.40;;
56429;SDS011;42332;52.136;20.666;2023-03-14T07:02:31;10.02;;;3.30;;
56429;SDS011;42332;52.136;20.666;2023-03-14T07:04:56;8.30;;;2.58;;
56429;SDS011;42332;52.136;20.666;2023-03-14T07:07:22;6.38;;;2.72;;
56429;SDS011;42332;52.136;20.666;2023-03-14T07:09:47;8.13;;;2.92;;
56429;SDS011;42332;52.136;20.666;2023-03-14T07:12:12;8.35;;;2.95;;
56429;SDS011;42332;52.136;20.666;2023-03-14T07:14:38;9.75;;;3.38;;
56429;SDS011;42332;52.136;20.666;2023-03-14T07:17:03;6.75;;;2.70;;
56429;SDS011;42332;52.136;20.666;2023-03-14T07:19:30;8.95;;;2.70;;
56429;SDS011;42332;52.136;20.666;2023-03-14T07:21:55;8.25;;;2.97;;
56429;SDS011;42332;52.136;20.666;2023-03-14T07:24:22;9.63;;;2.83;;
56429;SDS011;42332;52.136;20.666;2023-03-14T07:26:47;8.52;;;3.30;;
56429;SDS011;42332;52.136;20.666;2023-03-14T07:29:13;11.40;;;3.17;;
56429;SDS011;42332;52.136;20.666;2023-03-14T07:31:38;7.38;;;2.75;;
56429;SDS011;42332;52.136;20.666;2023-03-14T07:34:03;8.88;;;3.53;;
56429;SDS011;42332;52.136;20.666;2023-03-14T07:36:29;8.95;;;3.20;;
56429;SDS011;42332;52.136;20.666;2023-03-14T07:38:54;8.02;;;2.90;;
56429;SDS011;42332;52.136;20.666;2023-03-14T07:41:20;9.18;;;3.40;;
56429;SDS011;42332;52.136;20.666;2023-03-14T07:43:45;8.80;;;2.90;;
56429;SDS011;42332;52.136;20.666;2023-03-14T07:46:11;9.30;;;2.60;;
56429;SDS011;42332;52.136;20.666;2023-03-14T07:48:36;13.55;;;3.30;;
56429;SDS011;42332;52.136;20.666;2023-03-14T07:51:02;10.63;;;2.70;;
56429;SDS011;42332;52.136;20.666;2023-03-14T07:53:27;12.80;;;2.95;;
56429;SDS011;42332;52.136;20.666;2023-03-14T07:55:53;11.57;;;3.13;;
56429;SDS011;42332;52.136;20.666;2023-03-14T07:58:19;10.02;;;2.65;;
56429;SDS011;42332;52.136;20.666;2023-03-14T08:00:46;8.07;;;3.20;;
56429;SDS011;42332;52.136;20.666;2023-03-14T08:03:12;6.47;;;2.47;;
56429;SDS011;42332;52.136;20.666;2023-03-14T08:05:38;9.80;;;3.05;;
56429;SDS011;42332;52.136;20.666;2023-03-14T08:08:04;9.00;;;3.20;;
56429;SDS011;42332;52.136;20.666;2023-03-14T08:10:30;8.98;;;3.40;;
56429;SDS011;42332;52.136;20.666;2023-03-14T08:12:56;9.82;;;3.30;;
56429;SDS011;42332;52.136;20.666;2023-03-14T08:15:22;10.65;;;3.72;;
56429;SDS011;42332;52.136;20.666;2023-03-14T08:17:48;9.30;;;3.10;;
56429;SDS011;42332;52.136;20.666;2023-03-14T08:20:18;6.97;;;3.20;;
56429;SDS011;42332;52.136;20.666;2023-03-14T08:22:44;7.13;;;2.88;;
56429;SDS011;42332;52.136;20.666;2023-03-14T08:25:09;8.82;;;2.90;;
56429;SDS011;42332;52.136;20.666;2023-03-14T08:27:35;9.02;;;3.50;;
56429;SDS011;42332;52.136;20.666;2023-03-14T08:30:03;8.93;;;3.30;;
56429;SDS011;42332;52.136;20.666;2023-03-14T08:32:29;10.70;;;3.42;;
56429;SDS011;42332;52.136;20.666;2023-03-14T08:34:55;7.78;;;3.80;;
56429;SDS011;42332;52.136;20.666;2023-03-14T08:37:20;8.90;;;3.85;;
56429;SDS011;42332;52.136;20.666;2023-03-14T08:39:46;13.05;;;3.38;;
56429;SDS011;42332;52.136;20.666;2023-03-14T08:42:11;8.23;;;3.65;;
56429;SDS011;42332;52.136;20.666;2023-03-14T08:44:36;9.77;;;4.13;;
56429;SDS011;42332;52.136;20.666;2023-03-14T08:47:05;11.13;;;3.83;;
56429;SDS011;42332;52.136;20.666;2023-03-14T08:49:31;9.48;;;2.90;;
56429;SDS011;42332;52.136;20.666;2023-03-14T08:51:56;9.23;;;3.83;;
56429;SDS011;42332;52.136;20.666;2023-03-14T08:54:21;8.40;;;3.58;;
56429;SDS011;42332;52.136;20.666;2023-03-14T08:56:47;9.82;;;3.63;;
56429;SDS011;42332;52.136;20.666;2023-03-14T08:59:12;10.80;;;3.03;;
56429;SDS011;42332;52.136;20.666;2023-03-14T09:01:38;6.68;;;2.70;;
56429;SDS011;42332;52.136;20.666;2023-03-14T09:04:03;11.68;;;3.67;;
56429;SDS011;42332;52.136;20.666;2023-03-14T09:06:28;11.32;;;3.13;;
56429;SDS011;42332;52.136;20.666;2023-03-14T09:08:54;11.27;;;4.90;;
56429;SDS011;42332;52.136;20.666;2023-03-14T09:11:19;10.15;;;4.38;;
56429;SDS011;42332;52.136;20.666;2023-03-14T09:13:45;13.23;;;3.88;;
56429;SDS011;42332;52.136;20.666;2023-03-14T09:16:10;12.07;;;3.97;;
56429;SDS011;42332;52.136;20.666;2023-03-14T09:18:35;11.13;;;4.60;;
56429;SDS011;42332;52.136;20.666;2023-03-14T09:21:01;15.13;;;5.18;;
56429;SDS011;42332;52.136;20.666;2023-03-14T09:23:26;10.55;;;3.65;;
56429;SDS011;42332;52.136;20.666;2023-03-14T09:25:55;7.10;;;3.50;;
56429;SDS011;42332;52.136;20.666;2023-03-14T09:28:22;8.38;;;2.97;;
56429;SDS011;42332;52.136;20.666;2023-03-14T09:30:47;15.40;;;6.57;;
56429;SDS011;42332;52.136;20.666;2023-03-14T09:33:12;12.63;;;5.32;;
56429;SDS011;42332;52.136;20.666;2023-03-14T09:35:38;13.88;;;4.63;;
56429;SDS011;42332;52.136;20.666;2023-03-14T09:38:03;12.80;;;4.25;;
56429;SDS011;42332;52.136;20.666;2023-03-14T09:40:31;16.35;;;5.25;;
56429;SDS011;42332;52.136;20.666;2023-03-14T09:42:59;10.13;;;3.45;;
56429;SDS011;42332;52.136;20.666;2023-03-14T09:45:25;8.25;;;2.88;;
56429;SDS011;42332;52.136;20.666;2023-03-14T09:47:52;15.07;;;4.70;;
56429;SDS011;42332;52.136;20.666;2023-03-14T09:50:18;9.90;;;3.13;;
56429;SDS011;42332;52.136;20.666;2023-03-14T09:52:45;9.70;;;3.60;;
56429;SDS011;42332;52.136;20.666;2023-03-14T09:55:16;12.70;;;3.33;;
56429;SDS011;42332;52.136;20.666;2023-03-14T09:57:43;12.02;;;3.85;;
56429;SDS011;42332;52.136;20.666;2023-03-14T10:00:20;7.93;;;2.92;;
56429;SDS011;42332;52.136;20.666;2023-03-14T10:02:52;8.95;;;2.80;;
56429;SDS011;42332;52.136;20.666;2023-03-14T10:05:21;9.88;;;2.17;;
56429;SDS011;42332;52.136;20.666;2023-03-14T10:07:48;14.18;;;3.17;;
56429;SDS011;42332;52.136;20.666;2023-03-14T10:10:16;7.03;;;2.60;;
56429;SDS011;42332;52.136;20.666;2023-03-14T10:12:45;7.05;;;2.45;;
56429;SDS011;42332;52.136;20.666;2023-03-14T10:15:12;7.07;;;2.35;;
56429;SDS011;42332;52.136;20.666;2023-03-14T10:17:51;11.18;;;2.80;;
56429;SDS011;42332;52.136;20.666;2023-03-14T10:20:31;11.27;;;4.68;;
56429;SDS011;42332;52.136;20.666;2023-03-14T10:23:01;15.25;;;5.47;;
56429;SDS011;42332;52.136;20.666;2023-03-14T10:25:32;8.82;;;3.35;;
56429;SDS011;42332;52.136;20.666;2023-03-14T10:28:02;8.27;;;3.60;;
56429;SDS011;42332;52.136;20.666;2023-03-14T10:33:16;8.60;;;2.80;;
56429;SDS011;42332;52.136;20.666;2023-03-14T10:38:44;6.55;;;2.30;;
56429;SDS011;42332;52.136;20.666;2023-03-14T10:41:20;17.95;;;7.68;;
56429;SDS011;42332;52.136;20.666;2023-03-14T10:43:50;7.63;;;2.83;;
56429;SDS011;42332;52.136;20.666;2023-03-14T10:46:17;8.15;;;2.95;;
56429;SDS011;42332;52.136;20.666;2023-03-14T10:48:43;9.85;;;3.40;;
56429;SDS011;42332;52.136;20.666;2023-03-14T10:56:38;11.32;;;3.00;;
56429;SDS011;42332;52.136;20.666;2023-03-14T10:59:06;11.27;;;3.45;;
56429;SDS011;42332;52.136;20.666;2023-03-14T11:01:37;9.10;;;3.20;;
56429;SDS011;42332;52.136;20.666;2023-03-14T11:09:58;18.08;;;5.22;;
56429;SDS011;42332;52.136;20.666;2023-03-14T11:15:25;16.10;;;5.50;;
56429;SDS011;42332;52.136;20.666;2023-03-14T11:20:52;14.30;;;6.35;;
56429;SDS011;42332;52.136;20.666;2023-03-14T11:23:32;15.02;;;4.22;;
56429;SDS011;42332;52.136;20.666;2023-03-14T11:26:13;11.63;;;4.10;;
56429;SDS011;42332;52.136;20.666;2023-03-14T11:31:46;13.60;;;6.30;;
56429;SDS011;42332;52.136;20.666;2023-03-14T11:36:44;13.20;;;3.58;;
56429;SDS011;42332;52.136;20.666;2023-03-14T11:39:14;12.98;;;3.83;;
56429;SDS011;42332;52.136;20.666;2023-03-14T11:41:43;11.05;;;3.28;;
56429;SDS011;42332;52.136;20.666;2023-03-14T11:44:18;9.60;;;3.10;;
56429;SDS011;42332;52.136;20.666;2023-03-14T11:47:17;10.95;;;3.92;;
56429;SDS011;42332;52.136;20.666;2023-03-14T11:52:30;10.05;;;3.58;;
56429;SDS011;42332;52.136;20.666;2023-03-14T11:54:59;12.57;;;3.92;;
56429;SDS011;42332;52.136;20.666;2023-03-14T11:57:27;13.48;;;3.67;;
56429;SDS011;42332;52.136;20.666;2023-03-14T12:00:04;14.77;;;4.30;;
56429;SDS011;42332;52.136;20.666;2023-03-14T12:10:42;9.40;;;3.88;;
56429;SDS011;42332;52.136;20.666;2023-03-14T12:13:10;11.63;;;3.88;;
56429;SDS011;42332;52.136;20.666;2023-03-14T12:15:39;13.85;;;4.07;;
56429;SDS011;42332;52.136;20.666;2023-03-14T12:18:14;9.13;;;3.53;;
56429;SDS011;42332;52.136;20.666;2023-03-14T12:20:51;13.63;;;4.07;;
56429;SDS011;42332;52.136;20.666;2023-03-14T12:23:18;10.95;;;4.07;;
56429;SDS011;42332;52.136;20.666;2023-03-14T12:25:45;13.80;;;4.10;;
56429;SDS011;42332;52.136;20.666;2023-03-14T12:28:16;12.13;;;3.45;;
56429;SDS011;42332;52.136;20.666;2023-03-14T12:30:44;8.07;;;3.58;;
56429;SDS011;42332;52.136;20.666;2023-03-14T12:35:48;10.15;;;4.30;;
56429;SDS011;42332;52.136;20.666;2023-03-14T12:44:37;11.38;;;4.00;;
56429;SDS011;42332;52.136;20.666;2023-03-14T12:46:57;15.38;;;4.65;;
56429;SDS011;42332;52.136;20.666;2023-03-14T12:49:28;10.82;;;4.20;;
56429;SDS011;42332;52.136;20.666;2023-03-14T12:52:10;9.60;;;3.28;;
56429;SDS011;42332;52.136;20.666;2023-03-14T12:59:59;11.50;;;5.30;;
56429;SDS011;42332;52.136;20.666;2023-03-14T13:02:29;16.55;;;4.90;;
56429;SDS011;42332;52.136;20.666;2023-03-14T13:05:08;11.20;;;4.82;;
56429;SDS011;42332;52.136;20.666;2023-03-14T13:10:19;9.40;;;4.50;;
56429;SDS011;42332;52.136;20.666;2023-03-14T13:12:56;14.77;;;5.07;;
56429;SDS011;42332;52.136;20.666;2023-03-14T13:15:41;13.80;;;4.90;;
56429;SDS011;42332;52.136;20.666;2023-03-14T13:18:12;11.65;;;4.70;;
56429;SDS011;42332;52.136;20.666;2023-03-14T13:21:24;13.30;;;4.22;;
56429;SDS011;42332;52.136;20.666;2023-03-14T13:23:29;9.73;;;4.38;;
56429;SDS011;42332;52.136;20.666;2023-03-14T13:25:59;13.32;;;5.22;;
56429;SDS011;42332;52.136;20.666;2023-03-14T13:28:26;22.02;;;5.68;;
56429;SDS011;42332;52.136;20.666;2023-03-14T13:31:01;10.23;;;4.35;;
56429;SDS011;42332;52.136;20.666;2023-03-14T13:38:23;9.30;;;3.78;;
56429;SDS011;42332;52.136;20.666;2023-03-14T13:40:50;10.52;;;4.63;;
56429;SDS011;42332;52.136;20.666;2023-03-14T13:44:00;13.98;;;6.53;;
56429;SDS011;42332;52.136;20.666;2023-03-14T13:46:13;11.25;;;4.93;;
56429;SDS011;42332;52.136;20.666;2023-03-14T13:48:43;13.50;;;5.57;;
56429;SDS011;42332;52.136;20.666;2023-03-14T13:51:10;16.23;;;5.38;;
56429;SDS011;42332;52.136;20.666;2023-03-14T13:56:10;17.05;;;7.05;;
56429;SDS011;42332;52.136;20.666;2023-03-14T13:58:37;17.90;;;6.45;;
56429;SDS011;42332;52.136;20.666;2023-03-14T14:01:10;13.88;;;4.90;;
56429;SDS011;42332;52.136;20.666;2023-03-14T14:03:39;14.32;;;5.32;;
56429;SDS011;42332;52.136;20.666;2023-03-14T14:08:55;18.77;;;7.20;;
56429;SDS011;42332;52.136;20.666;2023-03-14T14:11:38;17.88;;;6.93;;
56429;SDS011;42332;52.136;20.666;2023-03-14T14:14:05;12.60;;;5.75;;
56429;SDS011;42332;52.136;20.666;2023-03-14T14:16:31;15.68;;;6.18;;
56429;SDS011;42332;52.136;20.666;2023-03-14T14:18:57;15.88;;;5.35;;
56429;SDS011;42332;52.136;20.666;2023-03-14T14:21:24;12.07;;;5.03;;
56429;SDS011;42332;52.136;20.666;2023-03-14T14:23:49;12.02;;;4.93;;
56429;SDS011;42332;52.136;20.666;2023-03-14T14:26:18;19.52;;;5.57;;
56429;SDS011;42332;52.136;20.666;2023-03-14T14:28:45;15.35;;;4.97;;
56429;SDS011;42332;52.136;20.666;2023-03-14T14:33:43;12.18;;;4.72;;
56429;SDS011;42332;52.136;20.666;2023-03-14T14:36:20;14.38;;;6.10;;
56429;SDS011;42332;52.136;20.666;2023-03-14T14:39:03;20.80;;;7.05;;
56429;SDS011;42332;52.136;20.666;2023-03-14T14:41:49;22.13;;;8.88;;
56429;SDS011;42332;52.136;20.666;2023-03-14T14:44:17;17.52;;;8.05;;
56429;SDS011;42332;52.136;20.666;2023-03-14T14:46:46;20.70;;;8.32;;
56429;SDS011;42332;52.136;20.666;2023-03-14T14:49:16;17.58;;;6.57;;
56429;SDS011;42332;52.136;20.666;2023-03-14T14:51:45;20.92;;;7.50;;
56429;SDS011;42332;52.136;20.666;2023-03-14T14:54:17;17.10;;;6.40;;
56429;SDS011;42332;52.136;20.666;2023-03-14T14:56:52;14.50;;;6.53;;
56429;SDS011;42332;52.136;20.666;2023-03-14T14:59:20;16.55;;;7.30;;
56429;SDS011;42332;52.136;20.666;2023-03-14T15:01:47;16.38;;;6.22;;
56429;SDS011;42332;52.136;20.666;2023-03-14T15:04:13;11.15;;;5.78;;
56429;SDS011;42332;52.136;20.666;2023-03-14T15:06:40;16.00;;;6.30;;
56429;SDS011;42332;52.136;20.666;2023-03-14T15:09:08;20.95;;;5.88;;
56429;SDS011;42332;52.136;20.666;2023-03-14T15:11:35;15.73;;;5.93;;
56429;SDS011;42332;52.136;20.666;2023-03-14T15:14:00;13.57;;;5.10;;
56429;SDS011;42332;52.136;20.666;2023-03-14T15:16:29;16.08;;;6.43;;
56429;SDS011;42332;52.136;20.666;2023-03-14T15:18:56;20.23;;;5.07;;
56429;SDS011;42332;52.136;20.666;2023-03-14T15:21:26;14.23;;;5.57;;
56429;SDS011;42332;52.136;20.666;2023-03-14T15:23:52;10.40;;;5.25;;
56429;SDS011;42332;52.136;20.666;2023-03-14T15:26:22;15.60;;;5.57;;
56429;SDS011;42332;52.136;20.666;2023-03-14T15:28:49;15.68;;;5.90;;
56429;SDS011;42332;52.136;20.666;2023-03-14T15:31:15;13.68;;;6.28;;
56429;SDS011;42332;52.136;20.666;2023-03-14T15:33:42;21.73;;;6.15;;
56429;SDS011;42332;52.136;20.666;2023-03-14T15:36:18;18.40;;;6.40;;
56429;SDS011;42332;52.136;20.666;2023-03-14T15:38:49;14.63;;;6.45;;
56429;SDS011;42332;52.136;20.666;2023-03-14T15:41:16;15.50;;;6.15;;
56429;SDS011;42332;52.136;20.666;2023-03-14T15:43:42;26.95;;;7.47;;
56429;SDS011;42332;52.136;20.666;2023-03-14T15:46:10;14.48;;;6.35;;
56429;SDS011;42332;52.136;20.666;2023-03-14T15:48:36;16.92;;;7.68;;